createdAt,value
2018-02-16T00:00:12.693Z,61.75
2018-02-16T00:02:40.306Z,57.97
2018-02-16T00:05:07.877Z,60.83
2018-02-16T00:07:35.486Z,71.65
2018-02-16T00:10:03.116Z,73.00
2018-02-16T00:12:31.013Z,84.07
2018-02-16T00:14:58.578Z,81.55
2018-02-16T00:17:26.216Z,73.68
2018-02-16T00:19:53.823Z,70.60
2018-02-16T00:22:22.182Z,74.93
2018-02-16T00:24:49.786Z,80.47
2018-02-16T00:27:17.398Z,83.43
2018-02-16T00:29:45.015Z,76.43
2018-02-16T00:32:13.340Z,77.30
2018-02-16T00:34:40.970Z,65.03
2018-02-16T00:37:08.584Z,68.60
2018-02-16T00:39:36.948Z,72.85
2018-02-16T00:42:05.291Z,72.12
2018-02-16T00:44:32.878Z,57.83
2018-02-16T00:47:00.487Z,64.93
2018-02-16T00:49:28.882Z,58.10
2018-02-16T00:51:56.447Z,54.67
2018-02-16T00:54:24.010Z,52.33
2018-02-16T00:56:51.570Z,54.92
2018-02-16T00:59:19.178Z,50.67
2018-02-16T01:01:47.522Z,48.80
2018-02-16T01:04:15.133Z,57.20
2018-02-16T01:06:42.691Z,49.83
2018-02-16T01:09:10.336Z,60.63
2018-02-16T01:11:38.668Z,62.88
2018-02-16T01:14:06.278Z,65.03
2018-02-16T01:16:34.630Z,70.95
2018-02-16T01:19:02.230Z,69.05
2018-02-16T01:21:29.830Z,70.25
2018-02-16T01:23:57.510Z,69.47
2018-02-16T01:26:25.110Z,86.22
2018-02-16T01:28:52.723Z,76.90
2018-02-16T01:31:20.354Z,90.80
2018-02-16T01:33:48.740Z,77.20
2018-02-16T01:36:16.312Z,99.53
2018-02-16T01:38:43.897Z,96.07
2018-02-16T01:41:11.530Z,100.53
2018-02-16T01:43:39.131Z,82.88
2018-02-16T01:46:07.523Z,80.87
2018-02-16T01:48:35.142Z,74.80
2018-02-16T01:51:02.766Z,71.80
2018-02-16T01:53:30.338Z,76.62
2018-02-16T01:55:57.944Z,82.50
2018-02-16T01:58:26.264Z,83.37
2018-02-16T02:00:53.835Z,71.00
2018-02-16T02:03:21.396Z,79.28
2018-02-16T02:05:48.997Z,81.87
2018-02-16T02:08:17.402Z,82.37
2018-02-16T02:10:45.030Z,80.05
2018-02-16T02:13:12.622Z,68.55
2018-02-16T02:18:35.986Z,57.40
2018-02-16T02:21:04.306Z,56.78
2018-02-16T02:23:31.907Z,58.85
2018-02-16T02:25:59.506Z,61.10
2018-02-16T02:28:27.098Z,54.40
2018-02-16T02:30:54.747Z,63.00
2018-02-16T02:33:22.350Z,68.32
2018-02-16T02:35:49.911Z,73.25
2018-02-16T02:38:17.514Z,67.55
2018-02-16T02:40:45.119Z,76.82
2018-02-16T02:43:12.699Z,59.10
2018-02-16T02:45:41.085Z,64.68
2018-02-16T02:48:09.417Z,61.20
2018-02-16T02:50:36.992Z,52.45
2018-02-16T02:53:04.598Z,47.53
2018-02-16T02:55:32.168Z,51.05
2018-02-16T02:57:59.750Z,54.95
2018-02-16T03:00:27.331Z,54.25
2018-02-16T03:02:54.894Z,47.58
2018-02-16T03:05:22.487Z,42.80
2018-02-16T03:07:50.075Z,43.03
2018-02-16T03:10:17.659Z,40.10
2018-02-16T03:12:45.294Z,38.58
2018-02-16T03:15:12.892Z,37.50
2018-02-16T03:17:40.458Z,38.08
2018-02-16T03:20:08.059Z,41.97
2018-02-16T03:22:35.685Z,39.53
2018-02-16T03:25:03.263Z,38.42
2018-02-16T03:27:31.593Z,37.63
2018-02-16T03:29:59.210Z,36.63
2018-02-16T03:32:27.535Z,32.60
2018-02-16T03:34:55.117Z,26.37
2018-02-16T03:37:22.734Z,27.25
2018-02-16T03:39:50.326Z,26.95
2018-02-16T03:42:17.942Z,25.17
2018-02-16T03:44:45.542Z,17.45
2018-02-16T03:47:13.171Z,25.40
2018-02-16T03:49:43.635Z,19.98
2018-02-16T03:52:11.246Z,18.92
2018-02-16T03:54:38.805Z,18.52
2018-02-16T03:57:06.389Z,22.73
2018-02-16T03:59:33.987Z,16.30
2018-02-16T04:02:01.584Z,13.45
2018-02-16T04:04:29.168Z,13.32
2018-02-16T04:06:56.738Z,12.90
2018-02-16T04:09:24.631Z,16.08
2018-02-16T04:11:52.193Z,15.00
2018-02-16T04:14:19.834Z,8.75
2018-02-16T04:16:47.407Z,11.65
2018-02-16T04:19:15.014Z,11.15
2018-02-16T04:21:42.609Z,12.60
2018-02-16T04:24:10.223Z,6.85
2018-02-16T04:26:37.846Z,9.93
2018-02-16T04:29:05.464Z,8.38
2018-02-16T04:31:33.064Z,10.43
2018-02-16T04:34:00.633Z,8.93
2018-02-16T04:36:28.239Z,9.20
2018-02-16T04:38:55.798Z,9.18
2018-02-16T04:41:23.331Z,8.63
2018-02-16T04:43:51.694Z,9.65
2018-02-16T04:46:19.302Z,14.02
2018-02-16T04:48:46.898Z,19.00
2018-02-16T04:51:14.541Z,19.12
2018-02-16T04:53:42.141Z,24.63
2018-02-16T04:56:09.778Z,28.62
2018-02-16T04:58:37.407Z,27.50
2018-02-16T05:01:05.023Z,28.58
2018-02-16T05:03:32.605Z,25.52
2018-02-16T05:06:00.158Z,28.85
2018-02-16T05:08:28.502Z,21.15
2018-02-16T05:10:56.111Z,24.55
2018-02-16T05:13:23.672Z,29.70
2018-02-16T05:15:51.269Z,31.25
2018-02-16T05:18:18.818Z,28.60
2018-02-16T05:20:48.098Z,25.88
2018-02-16T05:23:15.693Z,27.58
2018-02-16T05:25:43.326Z,27.60
2018-02-16T05:28:19.083Z,29.67
2018-02-16T05:30:46.667Z,27.50
2018-02-16T05:33:14.230Z,31.90
2018-02-16T05:35:41.817Z,36.20
2018-02-16T05:38:10.216Z,30.40
2018-02-16T05:40:37.824Z,31.55
2018-02-16T05:43:05.422Z,24.08
2018-02-16T05:45:33.786Z,33.42
2018-02-16T05:48:01.396Z,27.70
2018-02-16T05:50:28.983Z,34.58
2018-02-16T05:52:56.591Z,38.95
2018-02-16T05:55:24.213Z,33.10
2018-02-16T05:57:51.810Z,36.92
2018-02-16T06:00:19.375Z,34.55
2018-02-16T06:02:46.978Z,30.00
2018-02-16T06:05:14.606Z,24.70
2018-02-16T06:07:42.175Z,24.42
2018-02-16T06:10:09.745Z,22.20
2018-02-16T06:12:37.314Z,24.52
2018-02-16T06:15:04.902Z,19.90
2018-02-16T06:17:32.495Z,20.27
2018-02-16T06:20:00.072Z,22.87
2018-02-16T06:22:27.819Z,20.40
2018-02-16T06:24:55.406Z,15.82
2018-02-16T06:27:23.819Z,14.95
2018-02-16T06:29:51.370Z,10.73
2018-02-16T06:32:18.955Z,9.57
2018-02-16T06:34:47.289Z,9.80
2018-02-16T06:37:14.904Z,10.43
2018-02-16T06:39:43.262Z,11.73
2018-02-16T06:42:10.895Z,10.10
2018-02-16T06:44:38.499Z,6.28
2018-02-16T06:47:06.863Z,6.53
2018-02-16T06:49:34.455Z,6.25
2018-02-16T06:52:02.026Z,7.25
2018-02-16T06:54:29.624Z,5.72
2018-02-16T06:56:57.215Z,5.82
2018-02-16T06:59:25.545Z,7.28
2018-02-16T07:01:53.171Z,8.07
2018-02-16T07:04:20.762Z,11.48
2018-02-16T07:06:48.314Z,10.55
2018-02-16T07:09:15.886Z,11.40
2018-02-16T07:11:43.517Z,10.25
2018-02-16T07:14:11.095Z,11.63
2018-02-16T07:16:38.722Z,16.10
2018-02-16T07:19:06.298Z,22.50
2018-02-16T07:21:33.893Z,24.92
2018-02-16T07:24:16.848Z,26.50
2018-02-16T07:26:45.209Z,17.73
2018-02-16T07:29:12.821Z,21.80
2018-02-16T07:31:40.379Z,21.42
2018-02-16T07:34:07.989Z,28.65
2018-02-16T07:36:35.578Z,30.15
2018-02-16T07:39:03.901Z,47.03
2018-02-16T07:41:31.530Z,41.60
2018-02-16T07:43:59.130Z,30.15
2018-02-16T07:46:26.694Z,28.67
2018-02-16T07:48:54.323Z,38.35
2018-02-16T07:51:21.943Z,28.02
2018-02-16T07:53:50.307Z,23.27
2018-02-16T07:56:17.900Z,20.00
2018-02-16T07:58:45.491Z,25.27
2018-02-16T08:01:13.074Z,19.60
2018-02-16T08:03:40.711Z,16.30
2018-02-16T08:06:08.280Z,15.10
2018-02-16T08:08:35.850Z,15.48
2018-02-16T08:11:03.438Z,13.93
2018-02-16T08:13:31.039Z,11.70
2018-02-16T08:15:59.415Z,22.00
2018-02-16T08:18:26.994Z,21.27
2018-02-16T08:20:54.586Z,13.75
2018-02-16T08:23:22.180Z,12.27
2018-02-16T08:25:49.759Z,12.48
2018-02-16T08:28:17.324Z,10.63
2018-02-16T08:30:45.706Z,12.35
2018-02-16T08:33:13.294Z,12.40
2018-02-16T08:35:40.890Z,16.80
2018-02-16T08:38:08.472Z,14.48
2018-02-16T08:40:36.074Z,18.95
2018-02-16T08:43:03.655Z,13.50
2018-02-16T08:45:32.012Z,12.00
2018-02-16T08:47:59.614Z,14.50
2018-02-16T08:50:27.235Z,11.15
2018-02-16T08:52:54.855Z,14.38
2018-02-16T08:55:22.444Z,14.87
2018-02-16T08:57:50.004Z,14.75
2018-02-16T09:00:17.635Z,14.23
2018-02-16T09:02:45.207Z,11.52
2018-02-16T09:05:12.796Z,10.27
2018-02-16T09:07:40.365Z,8.88
2018-02-16T09:10:08.765Z,8.98
2018-02-16T09:12:36.363Z,10.85
2018-02-16T09:15:03.947Z,13.85
2018-02-16T09:17:31.551Z,11.18
2018-02-16T09:19:59.172Z,10.07
2018-02-16T09:25:00.895Z,12.82
2018-02-16T09:27:28.500Z,14.87
2018-02-16T09:29:56.147Z,16.00
2018-02-16T09:32:23.734Z,13.38
2018-02-16T09:34:52.109Z,18.12
2018-02-16T09:37:19.774Z,18.98
2018-02-16T09:39:48.982Z,18.05
2018-02-16T09:42:17.378Z,20.88
2018-02-16T09:44:44.990Z,16.20
2018-02-16T09:47:12.654Z,15.65
2018-02-16T09:49:40.251Z,13.55
2018-02-16T09:52:07.838Z,16.80
2018-02-16T09:54:35.460Z,14.35
2018-02-16T09:57:03.832Z,15.95
2018-02-16T09:59:31.402Z,15.80
2018-02-16T10:01:59.754Z,15.88
2018-02-16T10:04:27.398Z,12.85
2018-02-16T10:06:54.961Z,11.60
2018-02-16T10:09:22.518Z,10.20
2018-02-16T10:11:50.099Z,9.70
2018-02-16T10:14:17.695Z,9.00
2018-02-16T10:16:45.309Z,7.93
2018-02-16T10:19:12.965Z,6.57
2018-02-16T10:21:40.576Z,11.70
2018-02-16T10:24:08.179Z,8.27
2018-02-16T10:26:35.834Z,11.38
2018-02-16T10:29:03.407Z,9.33
2018-02-16T10:31:31.048Z,10.50
2018-02-16T10:33:58.646Z,8.88
2018-02-16T10:36:26.238Z,10.40
2018-02-16T10:38:54.586Z,6.50
2018-02-16T10:41:22.198Z,7.33
2018-02-16T10:43:49.802Z,4.77
2018-02-16T10:46:17.403Z,6.80
2018-02-16T10:48:45.012Z,5.80
2018-02-16T10:51:12.582Z,10.33
2018-02-16T10:53:40.190Z,6.37
2018-02-16T10:56:07.747Z,6.60
2018-02-16T10:58:42.190Z,4.53
2018-02-16T11:01:15.435Z,8.53
2018-02-16T11:03:43.014Z,5.27
2018-02-16T11:06:12.568Z,3.60
2018-02-16T11:08:45.798Z,4.23
2018-02-16T11:11:14.166Z,7.67
2018-02-16T11:13:42.478Z,5.97
2018-02-16T11:16:10.110Z,5.83
2018-02-16T11:18:38.430Z,5.20
2018-02-16T11:21:06.090Z,4.37
2018-02-16T11:23:33.728Z,3.90
2018-02-16T11:26:01.332Z,6.00
2018-02-16T11:28:28.890Z,4.80
2018-02-16T11:30:56.436Z,2.80
2018-02-16T11:33:24.038Z,3.93
2018-02-16T11:35:51.662Z,5.30
2018-02-16T11:38:19.224Z,6.37
2018-02-16T11:40:46.764Z,6.60
2018-02-16T11:43:14.337Z,6.53
2018-02-16T11:45:41.901Z,11.67
2018-02-16T11:48:09.498Z,6.33
2018-02-16T11:51:52.813Z,4.50
2018-02-16T11:54:20.427Z,5.53
2018-02-16T11:56:54.916Z,5.80
2018-02-16T11:59:28.711Z,5.80
2018-02-16T12:01:56.271Z,7.83
2018-02-16T12:04:23.876Z,6.93
2018-02-16T12:06:51.432Z,5.23
2018-02-16T12:09:18.996Z,6.83
2018-02-16T12:11:46.572Z,6.03
2018-02-16T12:14:14.977Z,6.20
2018-02-16T12:16:46.157Z,7.00
2018-02-16T12:19:14.531Z,4.40
2018-02-16T12:21:42.862Z,5.90
2018-02-16T12:24:10.483Z,4.93
2018-02-16T12:26:38.071Z,7.30
2018-02-16T12:29:05.692Z,8.30
2018-02-16T12:31:34.080Z,9.00
2018-02-16T12:34:01.676Z,14.07
2018-02-16T12:36:29.258Z,13.40
2018-02-16T12:38:56.814Z,4.90
2018-02-16T12:41:24.426Z,5.33
2018-02-16T12:43:52.030Z,8.90
2018-02-16T12:46:19.641Z,9.77
2018-02-16T12:48:47.199Z,7.50
2018-02-16T12:51:14.780Z,4.30
2018-02-16T12:53:42.415Z,5.50
2018-02-16T12:56:10.811Z,7.20
2018-02-16T12:58:38.396Z,6.07
2018-02-16T13:01:05.973Z,4.90
2018-02-16T13:03:33.562Z,8.80
2018-02-16T13:06:01.991Z,5.93
2018-02-16T13:08:29.610Z,6.33
2018-02-16T13:10:58.015Z,5.67
2018-02-16T13:13:25.897Z,6.87
2018-02-16T13:15:53.470Z,6.50
2018-02-16T13:18:21.060Z,5.80
2018-02-16T13:20:48.691Z,6.67
2018-02-16T13:23:16.283Z,8.70
2018-02-16T13:25:43.914Z,7.80
2018-02-16T13:28:11.512Z,5.20
2018-02-16T13:30:39.889Z,6.20
2018-02-16T13:33:08.370Z,6.53
2018-02-16T13:35:36.714Z,6.10
2018-02-16T13:38:04.362Z,5.50
2018-02-16T13:40:31.910Z,4.27
2018-02-16T13:42:59.502Z,6.70
2018-02-16T13:45:27.198Z,6.17
2018-02-16T13:47:55.591Z,5.20
2018-02-16T13:50:23.222Z,4.47
2018-02-16T13:52:50.806Z,5.73
2018-02-16T13:55:18.396Z,7.40
2018-02-16T13:57:46.003Z,5.20
2018-02-16T14:00:13.620Z,4.43
2018-02-16T14:02:41.186Z,6.03
2018-02-16T14:05:08.762Z,4.83
2018-02-16T14:07:36.343Z,4.40
2018-02-16T14:10:03.926Z,3.63
2018-02-16T14:12:31.521Z,6.50
2018-02-16T14:14:59.131Z,7.07
2018-02-16T14:17:27.456Z,5.07
2018-02-16T14:19:55.052Z,3.50
2018-02-16T14:22:22.664Z,6.30
2018-02-16T14:24:50.292Z,5.03
2018-02-16T14:27:18.721Z,4.60
2018-02-16T14:29:46.281Z,4.30
2018-02-16T14:32:13.878Z,3.40
2018-02-16T14:34:41.444Z,5.53
2018-02-16T14:37:09.073Z,4.80
2018-02-16T14:39:36.637Z,3.57
2018-02-16T14:42:04.194Z,3.63
2018-02-16T14:44:32.709Z,4.13
2018-02-16T14:47:01.051Z,5.50
2018-02-16T14:49:28.658Z,6.37
2018-02-16T14:51:57.048Z,7.37
2018-02-16T14:54:24.647Z,8.83
2018-02-16T14:56:52.215Z,8.13
2018-02-16T14:59:19.819Z,8.33
2018-02-16T15:01:48.152Z,7.97
2018-02-16T15:04:15.791Z,7.43
2018-02-16T15:06:43.423Z,8.50
2018-02-16T15:09:11.030Z,11.00
2018-02-16T15:11:38.592Z,8.03
2018-02-16T15:14:06.194Z,10.63
2018-02-16T15:16:33.777Z,11.10
2018-02-16T15:19:01.320Z,6.83
2018-02-16T15:21:28.924Z,9.37
2018-02-16T15:23:56.526Z,8.90
2018-02-16T15:26:24.124Z,9.68
2018-02-16T15:28:51.743Z,10.07
2018-02-16T15:31:20.082Z,9.00
2018-02-16T15:33:47.675Z,8.63
2018-02-16T15:36:16.043Z,9.40
2018-02-16T15:38:43.654Z,9.37
2018-02-16T15:41:11.270Z,10.43
2018-02-16T15:43:39.638Z,8.98
2018-02-16T15:46:07.238Z,9.30
2018-02-16T15:48:34.831Z,8.95
2018-02-16T15:51:02.439Z,7.82
2018-02-16T15:53:30.805Z,10.43
2018-02-16T15:55:59.206Z,10.52
2018-02-16T15:58:26.779Z,14.45
2018-02-16T16:00:54.391Z,11.73
2018-02-16T16:03:21.998Z,13.73
2018-02-16T16:05:49.577Z,12.50
2018-02-16T16:08:17.956Z,13.30
2018-02-16T16:10:45.575Z,12.93
2018-02-16T16:13:13.937Z,12.80
2018-02-16T16:15:41.572Z,13.18
2018-02-16T16:18:09.223Z,17.23
2018-02-16T16:20:36.813Z,15.43
2018-02-16T16:23:04.428Z,12.07
2018-02-16T16:25:32.052Z,16.95
2018-02-16T16:28:00.426Z,16.70
2018-02-16T16:30:28.023Z,13.13
2018-02-16T16:32:55.629Z,14.85
2018-02-16T16:35:23.237Z,14.32
2018-02-16T16:37:50.846Z,17.55
2018-02-16T16:40:18.468Z,15.75
2018-02-16T16:42:46.076Z,11.35
2018-02-16T16:45:13.672Z,15.05
2018-02-16T16:47:41.255Z,15.70
2018-02-16T16:50:08.891Z,13.35
2018-02-16T16:52:36.523Z,13.35
2018-02-16T16:55:04.114Z,14.45
2018-02-16T16:57:31.703Z,13.15
2018-02-16T16:59:59.349Z,21.70
2018-02-16T17:02:26.954Z,15.20
2018-02-16T17:04:54.563Z,20.08
2018-02-16T17:07:22.922Z,18.50
2018-02-16T17:09:51.304Z,15.48
2018-02-16T17:12:19.695Z,26.45
2018-02-16T17:14:47.315Z,32.33
2018-02-16T17:17:14.939Z,24.12
2018-02-16T17:19:42.564Z,22.83
2018-02-16T17:22:11.848Z,23.45
2018-02-16T17:24:39.441Z,23.60
2018-02-16T17:27:07.036Z,28.15
2018-02-16T17:29:34.622Z,28.17
2018-02-16T17:32:02.978Z,21.83
2018-02-16T17:34:30.573Z,19.45
2018-02-16T17:36:58.910Z,13.50
2018-02-16T17:39:26.500Z,13.25
2018-02-16T17:41:54.748Z,16.15
2018-02-16T17:44:22.321Z,16.15
2018-02-16T17:46:51.438Z,22.13
2018-02-16T17:49:19.808Z,32.10
2018-02-16T17:51:47.410Z,33.97
2018-02-16T17:54:15.015Z,29.10
2018-02-16T17:56:42.598Z,24.58
2018-02-16T17:59:10.970Z,21.35
2018-02-16T18:01:38.579Z,12.30
2018-02-16T18:04:06.178Z,13.50
2018-02-16T18:06:33.785Z,19.00
2018-02-16T18:09:01.437Z,14.27
2018-02-16T18:11:29.023Z,14.10
2018-02-16T18:13:56.607Z,14.63
2018-02-16T18:16:24.187Z,6.62
2018-02-16T18:18:51.760Z,9.27
2018-02-16T18:21:20.166Z,11.40
2018-02-16T18:23:47.740Z,7.07
2018-02-16T18:26:15.344Z,11.15
2018-02-16T18:28:42.950Z,11.40
2018-02-16T18:31:10.545Z,8.00
2018-02-16T18:33:38.116Z,7.80
2018-02-16T18:36:05.722Z,12.85
2018-02-16T18:38:33.307Z,11.77
2018-02-16T18:41:00.928Z,8.45
2018-02-16T18:46:44.399Z,10.68
2018-02-16T18:49:17.681Z,33.05
2018-02-16T18:51:45.256Z,50.75
2018-02-16T18:54:12.806Z,53.60
2018-02-16T18:56:54.691Z,69.55
2018-02-16T18:59:22.287Z,66.80
2018-02-16T19:01:49.981Z,75.32
2018-02-16T19:04:17.598Z,53.20
2018-02-16T19:06:45.212Z,34.47
2018-02-16T19:09:12.810Z,28.08
2018-02-16T19:11:40.394Z,26.35
2018-02-16T19:14:07.994Z,26.10
2018-02-16T19:16:35.629Z,23.00
2018-02-16T19:19:03.211Z,24.05
2018-02-16T19:21:30.844Z,23.45
2018-02-16T19:27:01.775Z,16.30
2018-02-16T19:29:29.400Z,21.17
2018-02-16T19:31:56.995Z,21.05
2018-02-16T19:34:24.617Z,23.95
2018-02-16T19:36:52.169Z,30.73
2018-02-16T19:39:19.798Z,30.65
2018-02-16T19:41:47.414Z,31.80
2018-02-16T19:44:15.782Z,25.83
2018-02-16T19:46:44.176Z,24.42
2018-02-16T19:49:11.788Z,20.88
2018-02-16T19:51:39.418Z,22.25
2018-02-16T19:54:07.043Z,27.80
2018-02-16T19:56:35.405Z,22.98
2018-02-16T19:59:16.415Z,31.05
2018-02-16T20:01:44.011Z,31.58
2018-02-16T20:04:11.660Z,30.50
2018-02-16T20:06:39.277Z,30.30
2018-02-16T20:09:07.661Z,28.65
2018-02-16T20:11:35.984Z,24.90
2018-02-16T20:14:03.581Z,27.67
2018-02-16T20:16:31.979Z,24.10
2018-02-16T20:19:00.336Z,21.70
2018-02-16T20:21:27.995Z,20.65
2018-02-16T20:23:55.578Z,22.58
2018-02-16T20:26:23.984Z,35.78
2018-02-16T20:28:51.639Z,29.50
2018-02-16T20:31:20.006Z,30.75
2018-02-16T20:33:47.590Z,29.58
2018-02-16T20:36:15.964Z,33.20
2018-02-16T20:38:43.558Z,27.23
2018-02-16T20:41:11.186Z,31.48
2018-02-16T20:43:38.776Z,32.20
2018-02-16T20:46:06.406Z,36.63
2018-02-16T20:48:37.070Z,36.58
2018-02-16T20:51:04.724Z,40.20
2018-02-16T20:53:32.302Z,46.83
2018-02-16T20:55:59.935Z,47.13
2018-02-16T20:58:27.534Z,47.60
2018-02-16T21:00:55.154Z,43.35
2018-02-16T21:03:22.718Z,42.72
2018-02-16T21:05:50.307Z,41.10
2018-02-16T21:08:17.905Z,47.80
2018-02-16T21:10:45.586Z,45.65
2018-02-16T21:13:13.180Z,56.92
2018-02-16T21:15:40.815Z,57.38
2018-02-16T21:18:08.434Z,93.43
2018-02-16T21:20:36.831Z,102.32
2018-02-16T21:23:04.468Z,91.30
2018-02-16T21:25:32.057Z,89.50
2018-02-16T21:27:59.699Z,85.62
2018-02-16T21:30:28.051Z,88.22
2018-02-16T21:32:55.673Z,86.75
2018-02-16T21:35:23.224Z,71.45
2018-02-16T21:37:50.852Z,73.10
2018-02-16T21:40:18.468Z,79.22
2018-02-16T21:42:46.094Z,77.15
2018-02-16T21:45:13.672Z,79.43
2018-02-16T21:47:41.301Z,110.88
2018-02-16T21:50:09.655Z,108.22
2018-02-16T21:52:37.217Z,87.22
2018-02-16T21:55:04.848Z,96.82
2018-02-16T21:57:32.464Z,96.68
2018-02-16T22:00:00.065Z,87.10
2018-02-16T22:02:27.671Z,103.00
2018-02-16T22:04:56.004Z,87.80
2018-02-16T22:07:23.607Z,91.30
2018-02-16T22:09:51.993Z,84.72
2018-02-16T22:12:20.367Z,89.95
2018-02-16T22:14:48.777Z,90.72
2018-02-16T22:17:16.343Z,87.20
2018-02-16T22:19:48.936Z,104.53
2018-02-16T22:22:16.560Z,124.40
2018-02-16T22:24:44.148Z,117.22
2018-02-16T22:27:11.784Z,105.45
2018-02-16T22:29:39.387Z,109.95
2018-02-16T22:32:06.965Z,92.03
2018-02-16T22:34:34.548Z,103.43
2018-02-16T22:37:02.945Z,101.62
2018-02-16T22:39:30.597Z,118.28
2018-02-16T22:41:58.974Z,122.35
2018-02-16T22:44:26.556Z,96.07
2018-02-16T22:46:54.184Z,120.43
2018-02-16T22:49:22.533Z,117.07
2018-02-16T22:51:50.149Z,124.62
2018-02-16T22:54:17.799Z,112.82
2018-02-16T22:56:45.405Z,144.10
2018-02-16T22:59:13.039Z,125.25
2018-02-16T23:01:40.643Z,144.35
2018-02-16T23:04:08.206Z,150.95
2018-02-16T23:06:35.823Z,162.70
2018-02-16T23:09:03.416Z,155.90
2018-02-16T23:11:31.011Z,143.05
2018-02-16T23:13:58.603Z,162.20
2018-02-16T23:16:26.208Z,145.65
2018-02-16T23:18:53.768Z,144.73
2018-02-16T23:21:21.408Z,148.45
2018-02-16T23:23:49.058Z,144.05
2018-02-16T23:26:16.627Z,143.65
2018-02-16T23:28:44.230Z,159.23
2018-02-16T23:31:12.584Z,155.25
2018-02-16T23:33:40.236Z,147.55
2018-02-16T23:36:07.823Z,157.12
2018-02-16T23:38:36.221Z,163.62
2018-02-16T23:41:03.806Z,184.27
2018-02-16T23:43:32.151Z,182.73
2018-02-16T23:45:59.767Z,176.95
2018-02-16T23:48:27.388Z,188.35
2018-02-16T23:50:55.004Z,205.25
2018-02-16T23:53:22.600Z,147.50
2018-02-16T23:55:50.225Z,192.82
2018-02-16T23:58:17.788Z,182.77
